Wall Blake, Anguilla

9:52 AM AST on July 30, 2016 (GMT -0400)
Wallblake | | Change Station

Elev 95 ft 18.20 °N, 63.06 °W | Updated 52 minutes ago

Partly Cloudy
Partly Cloudy
88 °F
Feels Like 94 °F
N
21
Wind Variable Wind from ENE

Today
High -- | Low -- °F
--% Chance of Precip.
Yesterday
High -- | Low -- °F
Precip. -- in
Pressure 29.98 in
Visibility 6.2 miles
Clouds Few 2000 ft
Heat Index 94 °F
Dew Point 72 °F
Humidity 58%
Rainfall 0.00 in
Snow Depth Not available.
5:49 AM 6:47 PM
Waning Crescent, 13% visible
METAR TQPF 301300Z 07018KT 9999 FEW020 31/22 Q1015
Pressure 29.98 in
Visibility 6.2 miles
Clouds Few 2000 ft
Heat Index 94 °F
Dew Point 72 °F
Humidity 58%
Rainfall 0.00 in
Snow Depth Not available.
5:49 AM 6:47 PM
Waning Crescent, 13% visible
METAR TQPF 301300Z 07018KT 9999 FEW020 31/22 Q1015

10-Day Weather Forecast

No radar image for this location.
×

Almanac

Astronomy

Jul. 30, 2016 Rise Set
Actual Time
Civil Twilight
Nautical Twilight
Astronomical Twilight
Moon
Length of Visible Light
Length of Day
Tomorrow will be .
, % of the Moon is Illuminated

Today's Extremes

Country Highs Country Lows

Community

WunderPhotos

Upload Photos

1,928,560 photos uploaded!

WunderBlog® & News

Nearby

Air Quality

  Air Quality AQ Index Pollutant
Not available.

Snow Depth

Station Depth Elevation

Earthquake Activity

City Distance Mag. Time & Date
Minimum magnitude displayed is 2.5.

Coastal Water Temperatures

Place Temperature

Stations

Nearby Weather Stations

Station Location Temp. Windchill Dew Point Humidity Wind Precip. Elev Updated Type